createdAt,value
2023-04-28T00:00:05.947Z,8.13
2023-04-28T00:02:39.348Z,8.12
2023-04-28T00:05:10.226Z,8.09
2023-04-28T00:07:40.602Z,7.99
2023-04-28T00:10:12.424Z,8.09
2023-04-28T00:12:42.699Z,8.08
2023-04-28T00:15:13.658Z,8.13
2023-04-28T00:17:46.791Z,8.13
2023-04-28T00:20:17.190Z,8.15
2023-04-28T00:22:47.189Z,8.18
2023-04-28T00:25:17.332Z,8.21
2023-04-28T00:27:50.372Z,8.26
2023-04-28T00:30:21.148Z,8.25
2023-04-28T00:32:54.161Z,8.25
2023-04-28T00:35:25.649Z,8.27
2023-04-28T00:37:55.836Z,8.29
2023-04-28T00:40:26.182Z,8.30
2023-04-28T00:42:56.389Z,8.27
2023-04-28T00:45:26.806Z,8.28
2023-04-28T00:48:00.178Z,8.30
2023-04-28T00:50:32.136Z,8.30
2023-04-28T00:53:03.613Z,8.16
2023-04-28T00:55:37.981Z,8.29
2023-04-28T00:58:08.889Z,8.30
2023-04-28T01:00:39.617Z,8.30
2023-04-28T01:03:12.659Z,8.28
2023-04-28T01:05:45.386Z,8.28
2023-04-28T01:08:15.776Z,8.27
2023-04-28T01:10:47.275Z,8.21
2023-04-28T01:13:32.608Z,8.19
2023-04-28T01:16:03.921Z,8.16
2023-04-28T01:18:37.697Z,8.12
2023-04-28T01:21:09.250Z,8.13
2023-04-28T01:23:39.855Z,8.05
2023-04-28T01:26:12.587Z,8.19
2023-04-28T01:28:44.898Z,8.19
2023-04-28T01:31:18.168Z,8.18
2023-04-28T01:33:48.337Z,8.16
2023-04-28T01:36:19.978Z,8.18
2023-04-28T01:38:50.073Z,8.17
2023-04-28T01:41:25.537Z,8.18
2023-04-28T01:43:55.697Z,8.16
2023-04-28T01:46:27.461Z,8.12
2023-04-28T01:48:59.498Z,8.18
2023-04-28T01:51:29.799Z,8.18
2023-04-28T01:54:12.490Z,8.14
2023-04-28T01:56:45.762Z,8.14
2023-04-28T01:59:19.203Z,8.16
2023-04-28T02:01:49.196Z,8.16
2023-04-28T02:04:19.439Z,8.15
2023-04-28T02:06:49.749Z,8.15
2023-04-28T02:09:19.977Z,8.14
2023-04-28T02:11:52.841Z,8.12
2023-04-28T02:14:24.778Z,8.13
2023-04-28T02:16:55.310Z,8.11
2023-04-28T02:19:25.461Z,8.09
2023-04-28T02:21:56.034Z,8.07
2023-04-28T02:24:26.402Z,8.03
2023-04-28T02:26:59.940Z,8.01
2023-04-28T02:29:32.142Z,7.99
2023-04-28T02:32:02.297Z,7.94
2023-04-28T02:34:32.421Z,7.91
2023-04-28T02:37:02.543Z,7.89
2023-04-28T02:39:33.508Z,7.85
2023-04-28T02:42:06.674Z,7.85
2023-04-28T02:44:36.964Z,7.86
2023-04-28T02:47:07.235Z,7.89
2023-04-28T02:49:37.924Z,7.85
2023-04-28T02:52:08.566Z,7.91
2023-04-28T02:54:38.766Z,7.91
2023-04-28T02:57:12.016Z,7.90
2023-04-28T02:59:42.130Z,7.87
2023-04-28T03:02:13.197Z,7.83
2023-04-28T03:04:45.323Z,7.83
2023-04-28T03:07:22.025Z,7.82
2023-04-28T03:09:52.259Z,7.74
2023-04-28T03:12:26.981Z,7.82
2023-04-28T03:14:57.312Z,7.81
2023-04-28T03:17:29.868Z,7.79
2023-04-28T03:20:07.913Z,7.78
2023-04-28T03:22:44.762Z,7.74
2023-04-28T03:25:16.532Z,7.71
2023-04-28T03:27:54.929Z,7.69
2023-04-28T03:30:26.253Z,7.66
2023-04-28T03:32:56.513Z,7.50
2023-04-28T03:35:26.790Z,7.38
2023-04-28T03:38:02.805Z,7.50
2023-04-28T03:40:35.939Z,7.30
2023-04-28T03:43:38.094Z,7.50
2023-04-28T03:46:41.714Z,7.53
2023-04-28T03:49:16.021Z,7.56
2023-04-28T03:51:46.108Z,7.54
2023-04-28T03:54:18.531Z,7.53
2023-04-28T03:56:49.257Z,7.49
2023-04-28T03:59:22.901Z,7.46
2023-04-28T04:01:55.712Z,7.45
2023-04-28T04:04:26.460Z,7.35
2023-04-28T04:06:56.937Z,7.48
2023-04-28T04:09:29.249Z,7.48
2023-04-28T04:12:06.793Z,7.38
2023-04-28T04:14:39.633Z,7.51
2023-04-28T04:17:09.848Z,7.54
2023-04-28T04:19:40.125Z,7.45
2023-04-28T04:22:10.445Z,7.64
2023-04-28T04:24:40.946Z,7.68
2023-04-28T04:27:11.617Z,7.67
2023-04-28T04:29:48.023Z,7.67
2023-04-28T04:32:19.104Z,7.70
2023-04-28T04:34:52.041Z,7.71
2023-04-28T04:37:22.513Z,7.72
2023-04-28T04:40:06.993Z,7.73
2023-04-28T04:42:42.545Z,7.74
2023-04-28T04:45:19.498Z,7.77
2023-04-28T04:47:50.280Z,7.83
2023-04-28T04:50:23.195Z,7.86
2023-04-28T04:52:54.759Z,7.83
2023-04-28T04:55:25.048Z,7.86
2023-04-28T04:57:55.911Z,7.86
2023-04-28T05:00:48.159Z,7.85
2023-04-28T05:03:18.562Z,7.91
2023-04-28T05:05:49.137Z,7.89
2023-04-28T05:08:32.222Z,7.95
2023-04-28T05:11:02.456Z,8.07
2023-04-28T05:13:32.649Z,8.09
2023-04-28T05:16:09.212Z,8.13
2023-04-28T05:18:49.473Z,8.16
2023-04-28T05:21:22.116Z,8.15
2023-04-28T05:23:52.697Z,8.17
2023-04-28T05:26:23.281Z,8.22
2023-04-28T05:28:57.927Z,8.30
2023-04-28T05:31:32.727Z,8.31
2023-04-28T05:34:06.588Z,8.38
2023-04-28T05:36:39.677Z,8.41
2023-04-28T05:39:14.274Z,8.46
2023-04-28T05:41:45.260Z,8.50
2023-04-28T05:44:18.726Z,8.44
2023-04-28T05:46:52.564Z,8.57
2023-04-28T05:49:30.644Z,8.56
2023-04-28T05:52:00.711Z,8.66
2023-04-28T05:54:31.182Z,8.71
2023-04-28T05:57:01.704Z,8.74
2023-04-28T05:59:33.330Z,8.76
2023-04-28T06:02:06.930Z,8.84
2023-04-28T06:04:40.039Z,8.80
2023-04-28T06:07:11.276Z,9.00
2023-04-28T06:09:42.146Z,9.06
2023-04-28T06:12:14.472Z,9.17
2023-04-28T06:14:44.641Z,9.32
2023-04-28T06:17:20.067Z,9.39
2023-04-28T06:19:51.497Z,9.43
2023-04-28T06:22:23.888Z,9.51
2023-04-28T06:24:54.047Z,9.60
2023-04-28T06:27:33.097Z,9.63
2023-04-28T06:30:03.546Z,9.63
2023-04-28T06:32:36.958Z,9.54
2023-04-28T06:35:11.879Z,9.63
2023-04-28T06:37:42.073Z,9.62
2023-04-28T06:40:13.366Z,9.67
2023-04-28T06:42:48.028Z,9.78
2023-04-28T06:45:26.660Z,9.91
2023-04-28T06:48:02.741Z,9.97
2023-04-28T06:50:33.321Z,10.04
2023-04-28T06:53:03.696Z,10.21
2023-04-28T06:55:37.785Z,10.34
2023-04-28T06:58:10.364Z,10.43
2023-04-28T07:00:42.467Z,10.46
2023-04-28T07:03:15.847Z,10.52
2023-04-28T07:05:47.453Z,10.63
2023-04-28T07:08:18.060Z,10.77
2023-04-28T07:10:48.232Z,10.86
2023-04-28T07:13:18.511Z,10.90
2023-04-28T07:15:54.198Z,10.94
2023-04-28T07:18:29.146Z,10.92
2023-04-28T07:20:59.186Z,11.02
2023-04-28T07:23:29.675Z,10.94
2023-04-28T07:26:03.089Z,11.06
2023-04-28T07:28:33.260Z,10.98
2023-04-28T07:31:09.082Z,11.10
2023-04-28T07:33:42.036Z,11.11
2023-04-28T07:36:12.665Z,11.16
2023-04-28T07:38:44.686Z,11.28
2023-04-28T07:41:15.130Z,11.51
2023-04-28T07:43:45.508Z,11.59
2023-04-28T07:46:16.704Z,11.68
2023-04-28T07:48:50.004Z,11.82
2023-04-28T07:51:20.438Z,11.89
2023-04-28T07:53:51.772Z,12.03
2023-04-28T07:56:22.049Z,12.19
2023-04-28T07:58:52.347Z,12.47
2023-04-28T08:01:22.559Z,12.56
2023-04-28T08:03:55.821Z,12.70
2023-04-28T08:06:26.548Z,12.81
2023-04-28T08:08:58.720Z,12.89
2023-04-28T08:11:28.836Z,13.04
2023-04-28T08:14:03.328Z,12.90
2023-04-28T08:16:36.879Z,12.82
2023-04-28T08:19:10.187Z,12.82
2023-04-28T08:21:40.701Z,12.92
2023-04-28T08:24:11.035Z,12.85
2023-04-28T08:26:41.444Z,12.85
2023-04-28T08:29:11.771Z,12.84
2023-04-28T08:31:42.014Z,12.80
2023-04-28T08:34:16.521Z,12.78
2023-04-28T08:36:47.079Z,12.80
2023-04-28T08:39:17.456Z,12.77
2023-04-28T08:41:47.491Z,12.78
2023-04-28T08:44:17.925Z,12.76
2023-04-28T08:46:53.065Z,12.86
2023-04-28T08:49:31.071Z,12.86
2023-04-28T08:52:03.685Z,12.93
2023-04-28T08:54:38.959Z,13.11
2023-04-28T08:57:12.120Z,13.28
2023-04-28T08:59:43.382Z,13.38
2023-04-28T09:02:14.831Z,13.40
2023-04-28T09:04:47.886Z,13.52
2023-04-28T09:07:18.136Z,13.50
2023-04-28T09:10:27.662Z,13.49
2023-04-28T09:12:58.916Z,13.47
2023-04-28T09:15:33.307Z,13.39
2023-04-28T09:18:09.370Z,13.57
2023-04-28T09:20:42.247Z,13.57
2023-04-28T09:23:21.224Z,13.48
2023-04-28T09:26:07.906Z,13.34
2023-04-28T09:28:40.967Z,13.23
2023-04-28T09:31:25.575Z,13.05
2023-04-28T09:34:02.796Z,12.96
2023-04-28T09:36:35.429Z,12.88
2023-04-28T09:39:05.523Z,13.01
2023-04-28T09:41:43.347Z,13.04
2023-04-28T09:44:21.658Z,13.04
2023-04-28T09:46:51.912Z,13.14
2023-04-28T09:49:22.492Z,13.17
2023-04-28T09:51:55.423Z,13.30
2023-04-28T09:54:27.140Z,13.48
2023-04-28T09:56:58.899Z,13.66
2023-04-28T09:59:36.108Z,13.76
2023-04-28T10:02:26.018Z,13.76
2023-04-28T10:04:58.799Z,13.75
2023-04-28T10:07:35.127Z,13.89
2023-04-28T10:10:08.379Z,13.92
2023-04-28T10:12:39.644Z,13.80
2023-04-28T10:15:13.756Z,13.72
2023-04-28T10:17:43.884Z,13.83
2023-04-28T10:20:15.782Z,13.76
2023-04-28T10:23:17.907Z,13.59
2023-04-28T10:25:57.368Z,13.63
2023-04-28T10:28:28.317Z,13.79
2023-04-28T10:31:25.790Z,13.94
2023-04-28T10:33:56.349Z,14.06
2023-04-28T10:36:51.152Z,14.21
2023-04-28T10:39:24.259Z,14.45
2023-04-28T10:41:54.430Z,14.46
2023-04-28T10:44:46.997Z,14.57
2023-04-28T10:47:17.144Z,14.49
2023-04-28T10:50:11.616Z,14.58
2023-04-28T10:52:54.426Z,14.46
2023-04-28T10:55:37.993Z,14.56
2023-04-28T10:58:42.837Z,14.79
2023-04-28T11:01:32.516Z,14.67
2023-04-28T11:04:14.162Z,14.51
2023-04-28T11:06:46.291Z,14.53
2023-04-28T11:09:48.419Z,14.62
2023-04-28T11:12:22.330Z,14.81
2023-04-28T11:14:53.193Z,14.96
2023-04-28T11:17:44.098Z,14.95
2023-04-28T11:20:17.344Z,14.94
2023-04-28T11:22:47.663Z,15.05
2023-04-28T11:25:17.835Z,14.95
2023-04-28T11:27:51.281Z,14.98
2023-04-28T11:30:25.330Z,15.05
2023-04-28T11:32:56.536Z,15.02
2023-04-28T11:35:27.391Z,15.06
2023-04-28T11:38:05.772Z,14.96
2023-04-28T11:40:36.615Z,14.95
2023-04-28T11:43:09.357Z,14.97
2023-04-28T11:45:39.479Z,14.80
2023-04-28T11:48:26.210Z,14.66
2023-04-28T11:50:56.255Z,14.55
2023-04-28T11:53:48.082Z,14.60
2023-04-28T11:56:18.846Z,14.49
2023-04-28T11:59:04.352Z,14.52
2023-04-28T12:01:37.516Z,14.61
2023-04-28T12:04:10.030Z,14.67
2023-04-28T12:06:40.371Z,14.66
2023-04-28T12:09:26.096Z,14.60
2023-04-28T12:12:05.149Z,14.54
2023-04-28T12:14:57.568Z,14.55
2023-04-28T12:17:28.517Z,14.49
2023-04-28T12:19:59.465Z,14.67
2023-04-28T12:22:30.292Z,14.54
2023-04-28T12:25:11.888Z,14.82
2023-04-28T12:27:43.334Z,14.80
2023-04-28T12:30:31.723Z,14.59
2023-04-28T12:33:02.257Z,14.50
2023-04-28T12:35:33.383Z,14.50
2023-04-28T12:38:03.572Z,14.47
2023-04-28T12:40:33.746Z,14.55
2023-04-28T12:43:07.911Z,14.52
2023-04-28T12:45:41.447Z,14.66
2023-04-28T12:48:11.928Z,14.72
2023-04-28T12:50:45.565Z,14.73
2023-04-28T12:53:17.105Z,14.51
2023-04-28T12:55:47.416Z,14.39
2023-04-28T12:58:18.159Z,14.36
2023-04-28T13:00:50.987Z,14.34
2023-04-28T13:03:21.844Z,14.43
2023-04-28T13:05:52.232Z,14.41
2023-04-28T13:08:22.348Z,14.27
2023-04-28T13:10:52.595Z,14.26
2023-04-28T13:13:22.759Z,14.33
2023-04-28T13:15:55.447Z,14.36
2023-04-28T13:18:27.002Z,14.35
2023-04-28T13:20:58.730Z,14.25
2023-04-28T13:23:28.926Z,14.13
2023-04-28T13:25:59.019Z,14.11
2023-04-28T13:28:29.139Z,13.98
2023-04-28T13:31:01.782Z,13.94
2023-04-28T13:33:35.676Z,13.96
2023-04-28T13:36:10.374Z,13.95
2023-04-28T13:38:46.235Z,13.95
2023-04-28T13:41:17.510Z,13.93
2023-04-28T13:43:48.179Z,14.06
2023-04-28T13:46:21.203Z,14.11
2023-04-28T13:48:59.813Z,13.85
2023-04-28T13:51:32.951Z,14.08
2023-04-28T13:54:04.751Z,14.24
2023-04-28T13:56:34.911Z,14.25
2023-04-28T13:59:05.327Z,14.22
2023-04-28T14:01:38.005Z,14.12
2023-04-28T14:04:08.177Z,14.06
2023-04-28T14:06:38.421Z,14.18
2023-04-28T14:09:08.941Z,14.11
2023-04-28T14:11:40.822Z,14.07
2023-04-28T14:14:13.271Z,14.12
2023-04-28T14:16:47.408Z,14.17
2023-04-28T14:19:18.773Z,14.11
2023-04-28T14:21:50.702Z,14.11
2023-04-28T14:24:20.706Z,14.11
2023-04-28T14:26:51.102Z,13.96
2023-04-28T14:29:21.189Z,13.93
2023-04-28T14:31:57.373Z,13.90
2023-04-28T14:34:28.242Z,13.87
2023-04-28T14:36:58.554Z,13.86
2023-04-28T14:39:28.772Z,13.87
2023-04-28T14:41:58.777Z,13.90
2023-04-28T14:44:28.905Z,13.87
2023-04-28T14:47:02.467Z,13.89
2023-04-28T14:49:33.230Z,13.93
2023-04-28T14:52:03.547Z,13.98
2023-04-28T14:54:33.750Z,14.00
2023-04-28T14:57:04.356Z,14.04
2023-04-28T14:59:38.330Z,14.11
2023-04-28T15:02:11.534Z,14.04
2023-04-28T15:04:42.827Z,14.18
2023-04-28T15:07:12.969Z,14.28
2023-04-28T15:09:44.891Z,14.30
2023-04-28T15:12:15.130Z,14.28
2023-04-28T15:14:46.248Z,14.24
2023-04-28T15:17:19.089Z,14.20
2023-04-28T15:19:51.353Z,14.21
2023-04-28T15:22:25.756Z,14.23
2023-04-28T15:24:56.048Z,14.30
2023-04-28T15:27:26.260Z,14.32
2023-04-28T15:29:56.327Z,14.37
2023-04-28T15:32:30.439Z,14.39
2023-04-28T15:35:01.854Z,14.47
2023-04-28T15:37:48.949Z,14.51
2023-04-28T15:40:19.961Z,14.52
2023-04-28T15:42:53.107Z,14.53
2023-04-28T15:45:25.375Z,14.41
2023-04-28T15:47:58.671Z,14.26
2023-04-28T15:50:28.726Z,14.09
2023-04-28T15:53:00.254Z,14.00
2023-04-28T15:55:30.614Z,13.94
2023-04-28T15:58:00.984Z,14.00
2023-04-28T16:00:31.091Z,14.02
2023-04-28T16:03:03.895Z,14.07
2023-04-28T16:05:34.084Z,14.13
2023-04-28T16:08:05.011Z,14.17
2023-04-28T16:10:37.471Z,14.11
2023-04-28T16:13:12.396Z,14.00
2023-04-28T16:15:43.109Z,13.90
2023-04-28T16:18:16.082Z,13.80
2023-04-28T16:20:46.416Z,13.63
2023-04-28T16:23:16.399Z,13.75
2023-04-28T16:25:51.001Z,13.75
2023-04-28T16:28:21.034Z,13.74
2023-04-28T16:30:57.623Z,13.68
2023-04-28T16:33:30.367Z,13.58
2023-04-28T16:36:02.327Z,13.50
2023-04-28T16:38:35.191Z,13.46
2023-04-28T16:41:07.047Z,13.46
2023-04-28T16:43:38.420Z,13.46
2023-04-28T16:46:08.644Z,13.47
2023-04-28T16:48:42.403Z,13.50
2023-04-28T16:51:13.236Z,13.46
2023-04-28T16:53:45.030Z,13.49
2023-04-28T16:56:15.935Z,13.51
2023-04-28T16:58:46.046Z,13.50
2023-04-28T17:01:16.916Z,13.50
2023-04-28T17:03:53.986Z,13.44
2023-04-28T17:06:24.433Z,13.36
2023-04-28T17:08:54.931Z,13.30
2023-04-28T17:11:27.143Z,13.30
2023-04-28T17:13:57.325Z,13.28
2023-04-28T17:16:27.398Z,13.17
2023-04-28T17:19:03.251Z,13.09
2023-04-28T17:21:34.064Z,13.15
2023-04-28T17:24:04.568Z,13.17
2023-04-28T17:26:36.027Z,13.16
2023-04-28T17:29:07.013Z,13.11
2023-04-28T17:31:47.131Z,13.06
2023-04-28T17:34:20.314Z,13.01
2023-04-28T17:36:50.760Z,13.01
2023-04-28T17:39:20.829Z,13.01
2023-04-28T17:41:51.067Z,13.01
2023-04-28T17:44:21.204Z,13.01
2023-04-28T17:46:51.280Z,12.99
2023-04-28T17:49:24.038Z,12.93
2023-04-28T17:51:54.144Z,12.92
2023-04-28T17:54:24.197Z,12.89
2023-04-28T17:56:54.977Z,12.92
2023-04-28T17:59:28.238Z,12.91
2023-04-28T18:01:59.193Z,12.92
2023-04-28T18:04:32.338Z,12.90
2023-04-28T18:07:03.303Z,12.87
2023-04-28T18:09:33.497Z,12.82
2023-04-28T18:12:04.701Z,12.83
2023-04-28T18:14:37.065Z,12.84
2023-04-28T18:17:07.199Z,12.81
2023-04-28T18:19:42.291Z,12.83
2023-04-28T18:22:12.692Z,12.83
2023-04-28T18:24:44.698Z,12.86
2023-04-28T18:27:14.888Z,12.83
2023-04-28T18:29:45.331Z,12.89
2023-04-28T18:32:15.545Z,12.89
2023-04-28T18:34:48.561Z,12.88
2023-04-28T18:37:18.777Z,12.88
2023-04-28T18:39:48.810Z,12.88
2023-04-28T18:42:19.184Z,12.86
2023-04-28T18:44:49.823Z,12.85
2023-04-28T18:47:20.065Z,12.85
2023-04-28T18:49:53.008Z,12.89
2023-04-28T18:52:23.315Z,12.93
2023-04-28T18:54:53.535Z,12.89
2023-04-28T18:57:23.566Z,12.84
2023-04-28T18:59:53.693Z,12.84
2023-04-28T19:02:23.816Z,12.88
2023-04-28T19:04:57.227Z,12.89
2023-04-28T19:07:27.401Z,12.90
2023-04-28T19:09:58.793Z,12.90
2023-04-28T19:12:29.117Z,12.88
2023-04-28T19:14:59.165Z,12.86
2023-04-28T19:17:30.038Z,12.87
2023-04-28T19:20:04.114Z,12.90
2023-04-28T19:22:35.725Z,12.91
2023-04-28T19:25:07.150Z,12.91
2023-04-28T19:27:38.848Z,12.92
2023-04-28T19:30:12.379Z,12.85
2023-04-28T19:32:43.360Z,12.77
2023-04-28T19:35:16.642Z,12.71
2023-04-28T19:37:46.995Z,12.53
2023-04-28T19:40:20.004Z,12.60
2023-04-28T19:42:50.478Z,12.59
2023-04-28T19:45:21.099Z,12.64
2023-04-28T19:47:52.275Z,12.50
2023-04-28T19:50:25.078Z,12.49
2023-04-28T19:52:55.586Z,12.63
2023-04-28T19:55:26.090Z,12.70
2023-04-28T19:57:57.677Z,12.78
2023-04-28T20:00:29.870Z,12.82
2023-04-28T20:03:01.978Z,12.85
2023-04-28T20:05:34.770Z,12.83
2023-04-28T20:08:05.261Z,12.85
2023-04-28T20:10:35.507Z,12.87
2023-04-28T20:13:07.250Z,12.91
2023-04-28T20:15:40.294Z,12.94
2023-04-28T20:18:12.903Z,12.95
2023-04-28T20:20:46.825Z,12.97
2023-04-28T20:23:17.920Z,13.01
2023-04-28T20:25:48.892Z,13.04
2023-04-28T20:28:20.041Z,13.05
2023-04-28T20:30:53.552Z,13.09
2023-04-28T20:33:23.585Z,13.14
2023-04-28T20:35:56.248Z,13.15
2023-04-28T20:38:26.905Z,13.22
2023-04-28T20:40:58.159Z,13.25
2023-04-28T20:43:28.846Z,13.28
2023-04-28T20:46:09.041Z,13.32
2023-04-28T20:48:45.043Z,13.34
2023-04-28T20:51:17.871Z,13.38
2023-04-28T20:53:48.008Z,13.39
2023-04-28T20:56:18.076Z,13.41
2023-04-28T20:58:48.634Z,13.41
2023-04-28T21:01:19.028Z,13.39
2023-04-28T21:03:49.483Z,13.44
2023-04-28T21:06:26.018Z,13.43
2023-04-28T21:08:57.012Z,13.44
2023-04-28T21:11:27.310Z,13.47
2023-04-28T21:13:57.581Z,13.47
2023-04-28T21:16:27.673Z,13.48
2023-04-28T21:18:58.399Z,13.49
2023-04-28T21:21:31.185Z,13.52
2023-04-28T21:24:01.282Z,13.49
2023-04-28T21:26:34.250Z,13.55
2023-04-28T21:29:08.100Z,13.55
2023-04-28T21:31:39.766Z,13.54
2023-04-28T21:34:10.370Z,13.58
2023-04-28T21:36:49.355Z,13.60
2023-04-28T21:39:19.379Z,13.59
2023-04-28T21:41:49.528Z,13.57
2023-04-28T21:44:21.031Z,13.55
2023-04-28T21:46:51.585Z,13.53
2023-04-28T21:49:22.033Z,13.50
2023-04-28T21:51:58.853Z,13.50
2023-04-28T21:54:31.452Z,13.47
2023-04-28T21:57:05.141Z,13.49
2023-04-28T21:59:35.214Z,13.49
2023-04-28T22:02:06.429Z,13.29
2023-04-28T22:04:40.282Z,13.50
2023-04-28T22:07:13.355Z,13.50
2023-04-28T22:09:45.317Z,13.44
2023-04-28T22:12:17.334Z,13.48
2023-04-28T22:14:47.466Z,13.47
2023-04-28T22:17:19.759Z,13.47
2023-04-28T22:19:50.129Z,13.46
2023-04-28T22:22:23.274Z,13.47
2023-04-28T22:24:53.581Z,13.48
2023-04-28T22:27:23.621Z,13.47
2023-04-28T22:29:53.612Z,13.42
2023-04-28T22:32:23.659Z,13.43
2023-04-28T22:34:53.887Z,13.42
2023-04-28T22:37:26.634Z,13.39
2023-04-28T22:39:59.483Z,13.37
2023-04-28T22:42:29.743Z,13.36
2023-04-28T22:45:03.548Z,13.16
2023-04-28T22:47:33.660Z,13.35
2023-04-28T22:50:05.936Z,13.34
2023-04-28T22:52:38.808Z,13.30
2023-04-28T22:55:10.007Z,13.31
2023-04-28T22:57:39.958Z,13.31
2023-04-28T23:00:20.932Z,13.29
2023-04-28T23:02:51.011Z,13.27
2023-04-28T23:05:23.892Z,13.25
2023-04-28T23:07:58.608Z,13.24
2023-04-28T23:10:29.182Z,13.22
2023-04-28T23:13:00.302Z,13.07
2023-04-28T23:15:30.496Z,13.21
2023-04-28T23:18:00.600Z,13.11
2023-04-28T23:20:30.753Z,13.18
2023-04-28T23:23:03.577Z,13.18
2023-04-28T23:25:42.806Z,13.15
2023-04-28T23:28:13.606Z,13.10
2023-04-28T23:30:51.856Z,13.11
2023-04-28T23:33:21.973Z,13.09
2023-04-28T23:35:53.786Z,13.08
2023-04-28T23:38:27.283Z,13.09
2023-04-28T23:40:57.446Z,13.09
2023-04-28T23:43:29.537Z,13.05
2023-04-28T23:46:00.725Z,13.03
2023-04-28T23:48:31.123Z,12.97
2023-04-28T23:51:01.386Z,12.93
2023-04-28T23:53:33.911Z,12.87
2023-04-28T23:56:04.263Z,12.86
2023-04-28T23:58:34.388Z,12.84
